createdAt,value
2018-09-05T00:00:11.248Z,99.90
2018-09-05T00:02:39.373Z,99.90
2018-09-05T00:05:07.253Z,99.90
2018-09-05T00:07:34.984Z,99.90
2018-09-05T00:10:03.801Z,99.90
2018-09-05T00:12:31.760Z,99.90
2018-09-05T00:14:59.701Z,99.90
2018-09-05T00:17:28.496Z,99.90
2018-09-05T00:19:56.285Z,99.90
2018-09-05T00:22:23.990Z,99.90
2018-09-05T00:24:51.801Z,99.90
2018-09-05T00:27:19.542Z,99.90
2018-09-05T00:29:47.304Z,99.90
2018-09-05T00:32:15.105Z,99.90
2018-09-05T00:34:42.805Z,99.90
2018-09-05T00:38:40.077Z,99.90
2018-09-05T00:41:07.868Z,99.90
2018-09-05T00:43:36.837Z,99.90
2018-09-05T00:46:04.640Z,99.90
2018-09-05T00:48:32.389Z,99.90
2018-09-05T00:51:00.184Z,99.90
2018-09-05T00:53:27.929Z,99.90
2018-09-05T00:55:55.645Z,99.90
2018-09-05T00:58:23.461Z,99.90
2018-09-05T01:00:51.419Z,99.90
2018-09-05T01:03:19.344Z,99.90
2018-09-05T01:05:47.163Z,99.90
2018-09-05T01:08:14.945Z,99.90
2018-09-05T01:10:42.688Z,99.90
2018-09-05T01:13:10.448Z,99.90
2018-09-05T01:15:39.073Z,99.90
2018-09-05T01:18:06.829Z,99.90
2018-09-05T01:20:35.781Z,99.90
2018-09-05T01:23:03.594Z,99.90
2018-09-05T01:25:31.305Z,99.90
2018-09-05T01:27:59.112Z,99.90
2018-09-05T01:30:28.929Z,99.90
2018-09-05T01:32:57.559Z,99.90
2018-09-05T01:35:26.443Z,99.90
2018-09-05T01:37:55.167Z,99.90
2018-09-05T01:40:23.961Z,99.90
2018-09-05T01:42:51.700Z,99.90
2018-09-05T01:45:19.448Z,99.90
2018-09-05T01:47:47.249Z,99.90
2018-09-05T01:50:14.977Z,99.90
2018-09-05T01:52:42.769Z,99.90
2018-09-05T01:55:11.577Z,99.90
2018-09-05T01:57:39.288Z,99.90
2018-09-05T02:00:11.416Z,99.90
2018-09-05T02:02:39.121Z,99.90
2018-09-05T02:05:06.814Z,99.90
2018-09-05T02:07:34.580Z,99.90
2018-09-05T02:10:03.397Z,99.90
2018-09-05T02:12:31.114Z,99.90
2018-09-05T02:14:59.029Z,99.90
2018-09-05T02:17:26.769Z,99.90
2018-09-05T02:19:54.496Z,99.90
2018-09-05T02:22:22.292Z,99.90
2018-09-05T02:24:50.057Z,99.90
2018-09-05T02:27:17.792Z,99.90
2018-09-05T02:29:45.585Z,99.90
2018-09-05T02:32:13.369Z,99.90
2018-09-05T02:34:41.090Z,99.90
2018-09-05T02:37:08.900Z,99.90
2018-09-05T02:39:36.604Z,99.90
2018-09-05T02:42:04.387Z,99.90
2018-09-05T02:44:32.228Z,99.90
2018-09-05T02:46:59.959Z,99.90
2018-09-05T02:49:27.730Z,99.90
2018-09-05T02:51:55.433Z,99.90
2018-09-05T02:54:23.268Z,99.90
2018-09-05T02:56:51.001Z,99.90
2018-09-05T02:59:18.788Z,99.90
2018-09-05T03:01:47.561Z,99.90
2018-09-05T03:04:15.285Z,99.90
2018-09-05T03:06:44.036Z,99.90
2018-09-05T03:09:11.802Z,99.90
2018-09-05T03:11:40.524Z,99.90
2018-09-05T03:14:08.301Z,99.90
2018-09-05T03:16:36.110Z,99.90
2018-09-05T03:19:04.110Z,99.90
2018-09-05T03:21:32.640Z,99.90
2018-09-05T03:24:00.421Z,99.90
2018-09-05T03:26:28.141Z,99.90
2018-09-05T03:28:55.928Z,99.90
2018-09-05T03:31:23.719Z,99.90
2018-09-05T03:33:51.488Z,99.90
2018-09-05T03:36:19.234Z,99.90
2018-09-05T03:38:46.960Z,99.90
2018-09-05T03:41:15.707Z,99.90
2018-09-05T03:43:43.470Z,99.90
2018-09-05T03:46:11.233Z,99.90
2018-09-05T03:48:39.197Z,99.90
2018-09-05T03:51:07.969Z,99.90
2018-09-05T03:53:35.705Z,99.90
2018-09-05T03:56:03.477Z,99.90
2018-09-05T03:58:31.251Z,99.90
2018-09-05T04:00:59.020Z,99.90
2018-09-05T04:03:26.837Z,99.90
2018-09-05T04:05:55.573Z,99.90
2018-09-05T04:08:23.361Z,99.90
2018-09-05T04:10:51.081Z,99.90
2018-09-05T04:13:18.873Z,99.90
2018-09-05T04:15:46.599Z,99.90
2018-09-05T04:18:14.378Z,99.90
2018-09-05T04:20:42.490Z,99.90
2018-09-05T04:23:10.252Z,99.90
2018-09-05T04:25:37.968Z,99.90
2018-09-05T04:28:05.993Z,99.90
2018-09-05T04:30:33.739Z,99.90
2018-09-05T04:33:01.488Z,99.90
2018-09-05T04:35:29.284Z,99.90
2018-09-05T04:37:56.989Z,99.90
2018-09-05T04:40:24.769Z,99.90
2018-09-05T04:42:52.588Z,99.90
2018-09-05T04:45:20.345Z,99.90
2018-09-05T04:47:49.137Z,99.90
2018-09-05T04:50:16.833Z,99.90
2018-09-05T04:52:44.788Z,99.90
2018-09-05T04:55:12.366Z,99.90
2018-09-05T04:57:40.209Z,99.90
2018-09-05T05:00:07.925Z,99.90
2018-09-05T05:02:36.853Z,99.90
2018-09-05T05:05:04.712Z,99.90
2018-09-05T05:07:33.513Z,99.90
2018-09-05T05:10:01.481Z,99.90
2018-09-05T05:12:29.230Z,99.90
2018-09-05T05:14:58.009Z,99.90
2018-09-05T05:17:25.757Z,99.90
2018-09-05T05:19:53.493Z,99.90
2018-09-05T05:22:21.305Z,99.90
2018-09-05T05:24:49.024Z,99.90
2018-09-05T05:27:16.852Z,99.90
2018-09-05T05:29:44.592Z,99.90
2018-09-05T05:32:12.360Z,99.90
2018-09-05T05:34:40.197Z,99.90
2018-09-05T05:37:07.990Z,99.90
2018-09-05T05:39:35.713Z,99.90
2018-09-05T05:42:03.502Z,99.90
2018-09-05T05:44:31.414Z,99.90
2018-09-05T05:46:59.145Z,99.90
2018-09-05T05:49:26.935Z,99.90
2018-09-05T05:51:54.648Z,99.90
2018-09-05T05:54:23.353Z,99.90
2018-09-05T05:56:51.081Z,99.90
2018-09-05T05:59:18.781Z,99.90
2018-09-05T06:01:46.581Z,99.90
2018-09-05T06:04:14.308Z,99.90
2018-09-05T06:06:42.055Z,99.90
2018-09-05T06:09:10.864Z,99.90
2018-09-05T06:11:38.672Z,99.90
2018-09-05T06:14:06.446Z,99.90
2018-09-05T06:16:34.230Z,99.90
2018-09-05T06:19:02.161Z,99.90
2018-09-05T06:21:29.886Z,99.90
2018-09-05T06:23:57.906Z,99.90
2018-09-05T06:26:25.590Z,99.90
2018-09-05T06:28:53.289Z,99.90
2018-09-05T06:31:21.297Z,99.90
2018-09-05T06:33:48.872Z,99.90
2018-09-05T06:36:16.568Z,99.90
2018-09-05T06:38:44.225Z,99.90
2018-09-05T06:41:11.929Z,99.90
2018-09-05T06:43:39.645Z,99.90
2018-09-05T06:46:07.456Z,99.90
2018-09-05T06:48:35.393Z,99.90
2018-09-05T06:51:05.477Z,99.90
2018-09-05T06:53:33.591Z,99.90
2018-09-05T06:56:01.801Z,99.90
2018-09-05T06:58:29.630Z,99.90
2018-09-05T07:00:57.369Z,99.90
2018-09-05T07:03:25.256Z,99.90
2018-09-05T07:05:53.000Z,99.90
2018-09-05T07:08:20.764Z,99.90
2018-09-05T07:10:48.767Z,99.90
2018-09-05T07:13:16.460Z,99.90
2018-09-05T07:15:44.153Z,99.90
2018-09-05T07:18:11.938Z,99.90
2018-09-05T07:20:39.618Z,99.90
2018-09-05T07:23:07.353Z,99.90
2018-09-05T07:25:35.043Z,99.90
2018-09-05T07:28:02.718Z,99.90
2018-09-05T07:30:30.463Z,99.90
2018-09-05T07:32:58.177Z,99.90
2018-09-05T07:35:26.027Z,99.90
2018-09-05T07:37:53.696Z,99.90
2018-09-05T07:40:21.366Z,99.90
2018-09-05T07:42:49.078Z,99.90
2018-09-05T07:45:16.760Z,99.90
2018-09-05T07:47:44.549Z,99.90
2018-09-05T07:50:12.256Z,99.90
2018-09-05T07:52:39.994Z,99.90
2018-09-05T07:55:07.656Z,99.90
2018-09-05T07:57:35.357Z,99.90
2018-09-05T08:00:03.126Z,99.90
2018-09-05T08:02:30.793Z,99.90
2018-09-05T08:04:58.549Z,99.90
2018-09-05T08:07:26.273Z,97.20
2018-09-05T08:09:53.948Z,95.40
2018-09-05T08:12:21.606Z,93.80
2018-09-05T08:14:49.658Z,92.50
2018-09-05T08:17:17.325Z,92.20
2018-09-05T08:19:45.050Z,91.80
2018-09-05T08:22:12.714Z,92.70
2018-09-05T08:24:40.573Z,91.90
2018-09-05T08:27:09.233Z,91.50
2018-09-05T08:29:37.031Z,90.10
2018-09-05T08:32:04.782Z,90.30
2018-09-05T08:34:32.588Z,88.00
2018-09-05T08:37:00.567Z,88.10
2018-09-05T08:39:27.981Z,87.20
2018-09-05T08:41:55.838Z,88.10
2018-09-05T08:44:23.749Z,87.40
2018-09-05T08:46:51.265Z,85.80
2018-09-05T08:49:18.972Z,84.60
2018-09-05T08:51:46.666Z,83.30
2018-09-05T08:54:14.361Z,77.80
2018-09-05T08:56:42.059Z,77.40
2018-09-05T08:59:09.842Z,76.40
2018-09-05T09:01:37.962Z,77.70
2018-09-05T09:04:05.722Z,78.10
2018-09-05T09:06:33.529Z,75.50
2018-09-05T09:09:01.265Z,74.80
2018-09-05T09:11:29.033Z,76.30
2018-09-05T09:13:56.620Z,76.50
2018-09-05T09:16:24.288Z,75.70
2018-09-05T09:18:52.045Z,69.70
2018-09-05T09:21:19.705Z,70.50
2018-09-05T09:23:47.397Z,71.40
2018-09-05T09:26:15.070Z,73.40
2018-09-05T09:28:42.765Z,74.40
2018-09-05T09:31:10.445Z,72.20
2018-09-05T09:33:38.134Z,71.50
2018-09-05T09:36:05.845Z,71.10
2018-09-05T09:38:33.561Z,72.10
2018-09-05T09:41:01.413Z,72.90
2018-09-05T09:43:29.112Z,72.30
2018-09-05T09:45:56.804Z,72.00
2018-09-05T09:48:24.604Z,73.60
2018-09-05T09:57:38.898Z,70.70
2018-09-05T10:00:07.105Z,70.20
2018-09-05T10:02:40.385Z,69.70
2018-09-05T10:05:13.468Z,68.60
2018-09-05T10:07:46.677Z,69.70
2018-09-05T10:10:20.070Z,68.80
2018-09-05T10:12:56.924Z,67.10
2018-09-05T10:15:30.153Z,66.80
2018-09-05T10:18:03.512Z,64.50
2018-09-05T10:20:31.277Z,65.70
2018-09-05T10:22:58.976Z,63.60
2018-09-05T10:25:26.797Z,62.30
2018-09-05T10:27:54.509Z,60.10
2018-09-05T10:30:22.304Z,61.20
2018-09-05T10:32:50.077Z,61.20
2018-09-05T10:35:17.872Z,62.50
2018-09-05T10:37:45.620Z,60.80
2018-09-05T10:40:13.381Z,61.00
2018-09-05T10:42:41.145Z,60.20
2018-09-05T10:45:08.870Z,59.20
2018-09-05T10:47:36.632Z,58.80
2018-09-05T10:50:04.456Z,59.10
2018-09-05T10:52:32.148Z,57.10
2018-09-05T10:55:00.001Z,57.90
2018-09-05T10:57:27.772Z,56.80
2018-09-05T10:59:55.452Z,56.50
2018-09-05T11:02:23.276Z,56.50
2018-09-05T11:04:51.040Z,56.30
2018-09-05T11:07:18.752Z,56.70
2018-09-05T11:09:47.213Z,55.30
2018-09-05T11:12:15.652Z,56.70
2018-09-05T11:14:44.113Z,54.80
2018-09-05T11:17:12.534Z,54.20
2018-09-05T11:19:40.987Z,54.90
2018-09-05T11:22:09.413Z,55.10
2018-09-05T11:24:37.936Z,55.10
2018-09-05T11:27:06.399Z,55.90
2018-09-05T11:29:34.866Z,55.90
2018-09-05T11:32:03.330Z,56.20
2018-09-05T11:34:31.787Z,58.00
2018-09-05T11:37:00.566Z,57.50
2018-09-05T11:39:29.005Z,57.40
2018-09-05T11:41:57.451Z,51.20
2018-09-05T11:44:25.922Z,49.40
2018-09-05T11:46:54.349Z,50.90
2018-09-05T11:49:22.849Z,50.80
2018-09-05T11:51:51.316Z,51.20
2018-09-05T11:54:19.782Z,52.30
2018-09-05T11:56:48.212Z,52.30
2018-09-05T11:59:16.717Z,52.00
2018-09-05T12:01:45.278Z,50.20
2018-09-05T12:04:13.757Z,48.80
2018-09-05T12:06:42.277Z,48.40
2018-09-05T12:09:11.909Z,48.20
2018-09-05T12:11:40.454Z,49.30
2018-09-05T12:14:09.585Z,49.90
2018-09-05T12:16:38.157Z,48.80
2018-09-05T12:19:07.505Z,47.30
2018-09-05T12:21:35.969Z,46.80
2018-09-05T12:24:04.749Z,47.70
2018-09-05T12:26:33.440Z,44.90
2018-09-05T12:29:03.441Z,44.50
2018-09-05T12:31:31.909Z,45.00
2018-09-05T12:34:00.338Z,45.30
2018-09-05T12:36:28.813Z,44.20
2018-09-05T12:38:57.325Z,44.10
2018-09-05T12:41:25.785Z,43.80
2018-09-05T12:43:54.273Z,44.70
2018-09-05T12:46:22.705Z,45.40
2018-09-05T12:48:51.165Z,45.10
2018-09-05T12:51:19.642Z,45.30
2018-09-05T12:53:48.090Z,44.80
2018-09-05T12:56:16.543Z,43.40
2018-09-05T12:58:45.002Z,44.40
2018-09-05T13:01:13.474Z,43.30
2018-09-05T13:03:42.374Z,43.00
2018-09-05T13:06:10.992Z,43.70
2018-09-05T13:08:39.642Z,43.60
2018-09-05T13:11:08.176Z,42.60
2018-09-05T13:13:36.676Z,42.10
2018-09-05T13:16:05.211Z,43.20
2018-09-05T13:18:33.683Z,44.30
2018-09-05T13:21:02.424Z,43.90
2018-09-05T13:23:31.004Z,44.40
2018-09-05T13:25:59.475Z,43.00
2018-09-05T13:28:28.237Z,44.40
2018-09-05T13:30:56.693Z,44.10
2018-09-05T13:33:25.165Z,42.00
2018-09-05T13:35:53.633Z,42.50
2018-09-05T13:38:22.222Z,41.70
2018-09-05T13:40:50.683Z,41.90
2018-09-05T13:43:19.273Z,42.40
2018-09-05T13:45:48.708Z,41.00
2018-09-05T13:48:17.281Z,43.30
2018-09-05T13:50:46.038Z,42.50
2018-09-05T13:53:14.572Z,41.40
2018-09-05T13:55:43.098Z,41.50
2018-09-05T13:58:11.631Z,42.90
2018-09-05T14:00:40.158Z,44.50
2018-09-05T14:03:08.598Z,45.30
2018-09-05T14:05:37.117Z,43.10
2018-09-05T14:08:05.932Z,40.40
2018-09-05T14:10:34.423Z,42.10
2018-09-05T14:13:02.914Z,39.60
2018-09-05T14:15:31.348Z,40.10
2018-09-05T14:17:59.857Z,39.20
2018-09-05T14:20:28.402Z,38.30
2018-09-05T14:22:56.822Z,38.30
2018-09-05T14:25:25.403Z,38.10
2018-09-05T14:27:53.988Z,38.30
2018-09-05T14:30:22.573Z,36.40
2018-09-05T14:32:51.048Z,36.20
2018-09-05T14:35:19.637Z,36.90
2018-09-05T14:37:48.157Z,36.50
2018-09-05T14:40:16.601Z,36.50
2018-09-05T14:42:45.066Z,35.40
2018-09-05T14:45:13.649Z,33.20
2018-09-05T14:47:42.097Z,34.10
2018-09-05T14:50:10.582Z,33.80
2018-09-05T14:52:39.125Z,34.80
2018-09-05T14:55:06.846Z,34.70
2018-09-05T14:57:35.309Z,33.90
2018-09-05T15:00:04.108Z,34.70
2018-09-05T15:02:32.559Z,34.40
2018-09-05T15:05:01.070Z,34.30
2018-09-05T15:07:30.648Z,32.80
2018-09-05T15:09:59.145Z,32.00
2018-09-05T15:12:27.672Z,30.50
2018-09-05T15:14:56.225Z,30.00
2018-09-05T15:17:24.715Z,30.60
2018-09-05T15:19:54.251Z,29.40
2018-09-05T15:22:23.621Z,29.20
2018-09-05T15:24:52.158Z,29.40
2018-09-05T15:27:20.656Z,30.30
2018-09-05T15:29:49.385Z,32.00
2018-09-05T15:32:17.140Z,32.80
2018-09-05T15:34:45.912Z,29.50
2018-09-05T15:37:13.716Z,29.30
2018-09-05T15:39:41.419Z,32.00
2018-09-05T15:42:09.118Z,31.80
2018-09-05T15:44:36.780Z,33.20
2018-09-05T15:47:04.528Z,34.30
2018-09-05T15:49:32.989Z,33.80
2018-09-05T15:52:00.737Z,37.10
2018-09-05T15:54:28.409Z,39.80
2018-09-05T15:56:56.078Z,40.90
2018-09-05T15:59:24.042Z,42.60
2018-09-05T16:01:53.565Z,44.30
2018-09-05T16:04:23.105Z,44.50
2018-09-05T16:06:51.590Z,45.20
2018-09-05T16:09:20.182Z,43.80
2018-09-05T16:11:48.759Z,44.90
2018-09-05T16:14:16.432Z,45.30
2018-09-05T16:16:44.132Z,45.30
2018-09-05T16:19:11.800Z,45.40
2018-09-05T16:21:39.501Z,43.60
2018-09-05T16:24:07.253Z,45.20
2018-09-05T16:26:34.961Z,46.00
2018-09-05T16:29:02.688Z,47.30
2018-09-05T16:33:54.146Z,47.20
2018-09-05T16:36:21.981Z,48.10
2018-09-05T16:38:50.388Z,49.10
2018-09-05T16:41:18.161Z,49.90
2018-09-05T16:43:45.845Z,50.70
2018-09-05T16:46:13.682Z,52.60
2018-09-05T16:48:41.510Z,53.70
2018-09-05T16:51:09.625Z,53.90
2018-09-05T16:53:37.794Z,54.10
2018-09-05T16:56:05.769Z,55.40
2018-09-05T16:58:35.343Z,56.60
2018-09-05T17:01:03.174Z,57.30
2018-09-05T17:03:30.854Z,57.80
2018-09-05T17:05:58.641Z,58.20
2018-09-05T17:08:26.399Z,58.50
2018-09-05T17:10:54.183Z,59.20
2018-09-05T17:13:21.933Z,60.10
2018-09-05T17:15:49.704Z,59.80
2018-09-05T17:18:17.529Z,60.50
2018-09-05T17:20:47.193Z,60.70
2018-09-05T17:23:15.106Z,60.00
2018-09-05T17:25:42.916Z,60.20
2018-09-05T17:28:10.637Z,60.60
2018-09-05T17:30:38.448Z,61.40
2018-09-05T17:33:06.436Z,61.30
2018-09-05T17:35:34.288Z,61.50
2018-09-05T17:38:02.013Z,62.30
2018-09-05T17:40:29.821Z,62.90
2018-09-05T17:42:57.532Z,63.00
2018-09-05T17:45:25.566Z,63.30
2018-09-05T17:47:53.297Z,63.50
2018-09-05T17:50:21.203Z,64.00
2018-09-05T17:52:48.964Z,64.20
2018-09-05T17:55:16.805Z,64.00
2018-09-05T17:57:44.573Z,64.00
2018-09-05T18:00:12.321Z,64.20
2018-09-05T18:02:40.121Z,64.40
2018-09-05T18:05:07.910Z,64.50
2018-09-05T18:07:35.624Z,64.70
2018-09-05T18:10:03.603Z,65.10
2018-09-05T18:12:31.184Z,65.30
2018-09-05T18:14:58.920Z,65.50
2018-09-05T18:17:27.718Z,65.60
2018-09-05T18:19:55.556Z,66.20
2018-09-05T18:22:23.323Z,66.70
2018-09-05T18:24:51.121Z,67.00
2018-09-05T18:27:18.856Z,67.20
2018-09-05T18:29:46.569Z,67.10
2018-09-05T18:32:14.248Z,67.70
2018-09-05T18:34:42.200Z,68.00
2018-09-05T18:37:10.969Z,68.30
2018-09-05T18:39:38.645Z,68.40
2018-09-05T18:42:06.386Z,69.00
2018-09-05T18:44:34.057Z,69.40
2018-09-05T18:47:01.837Z,69.80
2018-09-05T18:49:29.557Z,70.30
2018-09-05T18:51:57.409Z,70.60
2018-09-05T18:54:25.177Z,70.00
2018-09-05T18:56:52.997Z,71.10
2018-09-05T18:59:20.746Z,71.20
2018-09-05T19:01:48.485Z,71.50
2018-09-05T19:04:16.392Z,72.00
2018-09-05T19:06:44.057Z,72.60
2018-09-05T19:09:12.736Z,73.10
2018-09-05T19:11:40.765Z,73.80
2018-09-05T19:14:09.541Z,74.40
2018-09-05T19:16:37.257Z,74.60
2018-09-05T19:19:04.984Z,75.00
2018-09-05T19:21:32.749Z,75.20
2018-09-05T19:24:00.405Z,76.30
2018-09-05T19:26:28.118Z,75.60
2018-09-05T19:28:55.832Z,76.20
2018-09-05T19:31:23.544Z,76.30
2018-09-05T19:33:51.303Z,77.60
2018-09-05T19:36:18.965Z,77.50
2018-09-05T19:39:50.285Z,78.30
2018-09-05T19:42:17.971Z,78.90
2018-09-05T19:44:45.691Z,80.40
2018-09-05T19:47:13.429Z,81.00
2018-09-05T19:49:41.101Z,83.30
2018-09-05T19:52:09.138Z,83.20
2018-09-05T19:54:36.800Z,83.80
2018-09-05T19:57:04.497Z,84.60
2018-09-05T19:59:32.185Z,86.00
2018-09-05T20:01:59.857Z,85.90
2018-09-05T20:04:27.562Z,85.60
2018-09-05T20:06:55.293Z,85.90
2018-09-05T20:09:23.085Z,85.60
2018-09-05T20:11:50.828Z,86.00
2018-09-05T20:14:18.613Z,86.10
2018-09-05T20:16:46.329Z,86.40
2018-09-05T20:19:14.247Z,86.60
2018-09-05T20:21:41.945Z,86.90
2018-09-05T20:24:09.748Z,87.00
2018-09-05T20:26:37.497Z,87.40
2018-09-05T20:29:05.310Z,88.50
2018-09-05T20:31:33.037Z,89.50
2018-09-05T20:34:00.904Z,90.10
2018-09-05T20:36:29.733Z,90.60
2018-09-05T20:38:57.757Z,90.80
2018-09-05T20:41:25.561Z,91.10
2018-09-05T20:43:53.296Z,91.20
2018-09-05T20:46:21.026Z,91.50
2018-09-05T20:48:48.901Z,92.10
2018-09-05T20:51:16.687Z,92.40
2018-09-05T20:53:44.452Z,92.70
2018-09-05T20:56:12.229Z,92.80
2018-09-05T20:58:40.084Z,93.30
2018-09-05T21:01:07.933Z,93.70
2018-09-05T21:03:35.682Z,94.10
2018-09-05T21:06:03.512Z,94.70
2018-09-05T21:08:31.231Z,94.90
2018-09-05T21:10:59.042Z,95.30
2018-09-05T21:13:26.792Z,95.60
2018-09-05T21:15:54.537Z,95.50
2018-09-05T21:18:22.336Z,95.90
2018-09-05T21:20:50.357Z,95.60
2018-09-05T21:23:18.112Z,95.10
2018-09-05T21:25:45.917Z,95.00
2018-09-05T21:28:13.645Z,94.60
2018-09-05T21:30:42.325Z,94.70
2018-09-05T21:33:10.089Z,94.80
2018-09-05T21:35:37.885Z,95.30
2018-09-05T21:38:05.613Z,95.10
2018-09-05T21:40:33.420Z,95.60
2018-09-05T21:43:01.140Z,95.10
2018-09-05T21:45:28.924Z,95.60
2018-09-05T21:47:56.676Z,96.20
2018-09-05T21:50:24.482Z,96.50
2018-09-05T21:52:52.277Z,96.80
2018-09-05T21:55:20.025Z,97.20
2018-09-05T21:57:47.781Z,97.60
2018-09-05T22:00:16.586Z,97.20
2018-09-05T22:02:44.353Z,97.60
2018-09-05T22:05:12.061Z,97.90
2018-09-05T22:07:39.884Z,98.00
2018-09-05T22:10:07.646Z,98.20
2018-09-05T22:12:35.648Z,98.20
2018-09-05T22:15:03.329Z,98.10
2018-09-05T22:17:31.090Z,97.90
2018-09-05T22:19:58.882Z,97.80
2018-09-05T22:22:26.636Z,98.30
2018-09-05T22:24:54.529Z,98.70
2018-09-05T22:27:22.273Z,98.70
2018-09-05T22:29:50.009Z,98.80
2018-09-05T22:32:17.817Z,99.20
2018-09-05T22:34:45.528Z,99.00
2018-09-05T22:37:13.344Z,98.90
2018-09-05T22:39:41.128Z,99.10
2018-09-05T22:42:11.853Z,98.80
2018-09-05T22:44:45.257Z,98.90
2018-09-05T22:47:19.680Z,98.90
2018-09-05T22:51:02.733Z,99.10
2018-09-05T22:55:51.315Z,99.20
2018-09-05T22:59:30.754Z,99.30
2018-09-05T23:02:10.525Z,99.50
2018-09-05T23:04:51.343Z,99.90
2018-09-05T23:08:04.451Z,99.90
2018-09-05T23:10:44.298Z,99.90
2018-09-05T23:14:26.201Z,99.90
2018-09-05T23:17:09.883Z,99.90
2018-09-05T23:19:54.914Z,99.90
2018-09-05T23:22:24.523Z,99.90
2018-09-05T23:24:53.052Z,99.90
2018-09-05T23:27:21.550Z,99.90
2018-09-05T23:29:50.055Z,99.90
2018-09-05T23:32:18.560Z,99.90
2018-09-05T23:34:47.086Z,99.90
2018-09-05T23:37:15.566Z,99.90
2018-09-05T23:39:44.101Z,99.90
2018-09-05T23:42:12.646Z,99.90
2018-09-05T23:44:41.111Z,99.90
2018-09-05T23:47:09.759Z,99.90
2018-09-05T23:49:38.355Z,99.90
2018-09-05T23:52:06.906Z,99.90
2018-09-05T23:54:35.492Z,99.90
2018-09-05T23:57:05.223Z,99.90
2018-09-05T23:59:33.783Z,99.90
